createdAt,value
2018-07-28T00:00:25.108Z,93.37
2018-07-28T00:01:25.100Z,93.75
2018-07-28T00:02:25.085Z,92.59
2018-07-28T00:03:25.142Z,93.17
2018-07-28T00:04:25.070Z,93.75
2018-07-28T00:05:25.058Z,93.46
2018-07-28T00:06:25.367Z,93.27
2018-07-28T00:07:25.039Z,93.56
2018-07-28T00:08:25.029Z,93.37
2018-07-28T00:09:25.068Z,94.29
2018-07-28T00:10:25.010Z,94.77
2018-07-28T00:11:25.002Z,94.77
2018-07-28T00:12:24.991Z,95.45
2018-07-28T00:13:25.283Z,94.96
2018-07-28T00:14:24.975Z,95.64
2018-07-28T00:15:25.013Z,95.54
2018-07-28T00:16:24.954Z,95.54
2018-07-28T00:17:24.942Z,95.35
2018-07-28T00:18:24.934Z,96.03
2018-07-28T00:19:25.222Z,96.51
2018-07-28T00:20:24.913Z,95.93
2018-07-28T00:21:24.953Z,97.14
2018-07-28T00:22:24.894Z,97.04
2018-07-28T00:23:24.889Z,96.75
2018-07-28T00:24:24.878Z,96.94
2018-07-28T00:25:25.164Z,97.72
2018-07-28T00:26:24.855Z,97.81
2018-07-28T00:27:24.895Z,97.24
2018-07-28T00:28:24.836Z,97.81
2018-07-28T00:29:24.826Z,98.20
2018-07-28T00:30:24.813Z,98.20
2018-07-28T00:31:25.109Z,97.81
2018-07-28T00:32:24.821Z,98.49
2018-07-28T00:33:24.841Z,99.07
2018-07-28T00:34:24.776Z,98.39
2018-07-28T00:35:24.766Z,99.16
2018-07-28T00:36:24.756Z,98.97
2018-07-28T00:37:25.049Z,99.26
2018-07-28T00:38:24.738Z,99.16
2018-07-28T00:39:24.778Z,99.07
2018-07-28T00:40:24.717Z,99.55
2018-07-28T00:41:24.710Z,99.45
2018-07-28T00:42:24.698Z,99.99
2018-07-28T00:43:24.987Z,99.99
2018-07-28T00:44:24.677Z,99.99
2018-07-28T00:45:24.718Z,99.50
2018-07-28T00:46:24.658Z,99.94
2018-07-28T00:47:24.648Z,99.99
2018-07-28T00:48:24.682Z,99.99
2018-07-28T00:49:24.931Z,99.74
2018-07-28T00:50:24.618Z,99.55
2018-07-28T00:51:24.659Z,99.88
2018-07-28T00:52:24.599Z,99.99
2018-07-28T00:53:24.590Z,99.99
2018-07-28T00:54:24.581Z,99.99
2018-07-28T00:55:24.868Z,99.99
2018-07-28T00:56:24.562Z,99.99
2018-07-28T00:57:24.599Z,99.99
2018-07-28T00:58:24.539Z,99.99
2018-07-28T00:59:24.530Z,99.99
2018-07-28T01:00:24.580Z,99.99
2018-07-28T01:01:24.511Z,99.98
2018-07-28T01:02:24.800Z,99.99
2018-07-28T01:03:24.540Z,99.99
2018-07-28T01:04:24.478Z,99.99
2018-07-28T01:05:24.469Z,99.99
2018-07-28T01:06:24.459Z,99.99
2018-07-28T01:07:24.446Z,99.99
2018-07-28T01:08:24.437Z,99.99
2018-07-28T01:09:24.731Z,99.99
2018-07-28T01:10:24.418Z,99.99
2018-07-28T01:11:24.409Z,99.99
2018-07-28T01:12:24.398Z,99.99
2018-07-28T01:13:24.386Z,99.99
2018-07-28T01:14:24.377Z,99.99
2018-07-28T01:15:24.416Z,99.99
2018-07-28T01:16:24.658Z,99.99
2018-07-28T01:17:24.363Z,99.99
2018-07-28T01:18:24.337Z,99.99
2018-07-28T01:19:24.328Z,99.99
2018-07-28T01:20:24.314Z,99.99
2018-07-28T01:21:24.355Z,99.99
2018-07-28T01:22:24.300Z,99.99
2018-07-28T01:23:24.587Z,99.99
2018-07-28T01:24:24.275Z,99.99
2018-07-28T01:25:24.265Z,99.99
2018-07-28T01:26:24.254Z,99.99
2018-07-28T01:27:24.295Z,99.99
2018-07-28T01:28:24.237Z,99.99
2018-07-28T01:29:24.226Z,99.99
2018-07-28T01:30:24.512Z,99.99
2018-07-28T01:31:24.205Z,99.99
2018-07-28T01:32:24.197Z,99.99
2018-07-28T01:33:24.233Z,99.99
2018-07-28T01:34:24.172Z,99.99
2018-07-28T01:35:24.161Z,99.99
2018-07-28T01:36:24.156Z,99.99
2018-07-28T01:37:24.444Z,99.99
2018-07-28T01:38:24.138Z,99.99
2018-07-28T01:39:24.170Z,99.99
2018-07-28T01:40:24.115Z,99.99
2018-07-28T01:41:24.100Z,99.99
2018-07-28T01:42:24.091Z,99.99
2018-07-28T01:43:24.081Z,99.99
2018-07-28T01:44:24.371Z,99.99
2018-07-28T01:45:24.110Z,99.99
2018-07-28T01:46:24.050Z,99.99
2018-07-28T01:47:24.039Z,99.99
2018-07-28T01:48:24.044Z,99.99
2018-07-28T01:49:24.068Z,99.99
2018-07-28T01:50:24.012Z,99.99
2018-07-28T01:51:24.298Z,99.99
2018-07-28T01:52:23.985Z,99.99
2018-07-28T01:53:23.975Z,99.99
2018-07-28T01:54:23.965Z,99.99
2018-07-28T01:55:23.964Z,99.99
2018-07-28T01:56:23.944Z,99.99
2018-07-28T01:57:24.236Z,99.99
2018-07-28T01:58:23.922Z,99.99
2018-07-28T01:59:23.914Z,99.99
2018-07-28T02:00:23.904Z,99.99
2018-07-28T02:01:23.894Z,99.99
2018-07-28T02:02:23.884Z,99.99
2018-07-28T02:03:24.172Z,99.99
2018-07-28T02:04:23.865Z,99.99
2018-07-28T02:05:23.850Z,99.99
2018-07-28T02:06:23.842Z,99.99
2018-07-28T02:07:23.830Z,99.99
2018-07-28T02:08:23.821Z,99.99
2018-07-28T02:09:24.112Z,99.99
2018-07-28T02:10:23.798Z,99.99
2018-07-28T02:11:23.791Z,99.99
2018-07-28T02:12:23.776Z,99.99
2018-07-28T02:13:23.768Z,99.99
2018-07-28T02:14:23.756Z,99.99
2018-07-28T02:15:24.046Z,99.99
2018-07-28T02:16:23.736Z,99.99
2018-07-28T02:17:23.725Z,99.99
2018-07-28T02:18:23.713Z,99.99
2018-07-28T02:19:23.706Z,99.99
2018-07-28T02:20:23.693Z,99.99
2018-07-28T02:21:23.991Z,99.99
2018-07-28T02:22:23.675Z,99.99
2018-07-28T02:23:23.661Z,99.99
2018-07-28T02:24:23.652Z,99.99
2018-07-28T02:25:23.642Z,99.99
2018-07-28T02:26:23.635Z,99.99
2018-07-28T02:27:23.918Z,99.99
2018-07-28T02:28:23.607Z,99.99
2018-07-28T02:29:23.599Z,99.99
2018-07-28T02:30:23.589Z,99.99
2018-07-28T02:31:23.578Z,99.99
2018-07-28T02:32:23.566Z,99.99
2018-07-28T02:33:23.859Z,99.99
2018-07-28T02:34:23.544Z,99.99
2018-07-28T02:35:23.534Z,99.99
2018-07-28T02:36:23.528Z,99.99
2018-07-28T02:37:23.515Z,99.99
2018-07-28T02:38:23.502Z,99.99
2018-07-28T02:39:23.543Z,99.99
2018-07-28T02:40:23.785Z,99.99
2018-07-28T02:41:23.469Z,99.99
2018-07-28T02:42:23.461Z,99.99
2018-07-28T02:43:23.450Z,99.99
2018-07-28T02:44:23.440Z,99.99
2018-07-28T02:45:23.480Z,99.99
2018-07-28T02:46:23.416Z,99.99
2018-07-28T02:47:23.710Z,99.99
2018-07-28T02:48:23.399Z,99.99
2018-07-28T02:49:23.386Z,99.99
2018-07-28T02:50:23.376Z,99.99
2018-07-28T02:51:23.415Z,99.99
2018-07-28T02:52:23.353Z,99.99
2018-07-28T02:53:23.345Z,99.99
2018-07-28T02:54:23.637Z,99.99
2018-07-28T02:55:23.323Z,99.99
2018-07-28T02:56:23.311Z,99.99
2018-07-28T02:57:23.350Z,99.99
2018-07-28T02:58:23.289Z,99.99
2018-07-28T02:59:23.280Z,99.99
2018-07-28T03:00:23.305Z,99.99
2018-07-28T03:01:23.560Z,99.99
2018-07-28T03:02:23.246Z,99.99
2018-07-28T03:03:23.287Z,99.99
2018-07-28T03:04:23.226Z,99.99
2018-07-28T03:05:23.216Z,99.99
2018-07-28T03:06:23.203Z,99.99
2018-07-28T03:07:23.195Z,99.99
2018-07-28T03:08:23.482Z,99.99
2018-07-28T03:09:23.232Z,99.99
2018-07-28T03:10:23.160Z,99.99
2018-07-28T03:11:23.159Z,99.99
2018-07-28T03:12:23.141Z,99.99
2018-07-28T03:13:23.136Z,99.99
2018-07-28T03:14:23.115Z,99.99
2018-07-28T03:15:23.409Z,99.99
2018-07-28T03:16:23.096Z,99.99
2018-07-28T03:17:23.088Z,99.99
2018-07-28T03:18:23.072Z,99.99
2018-07-28T03:19:23.063Z,99.99
2018-07-28T03:20:23.057Z,99.99
2018-07-28T03:21:23.095Z,99.99
2018-07-28T03:22:23.331Z,99.99
2018-07-28T03:23:23.018Z,99.99
2018-07-28T03:24:23.009Z,99.99
2018-07-28T03:25:22.999Z,99.99
2018-07-28T03:26:22.987Z,99.99
2018-07-28T03:27:23.025Z,99.99
2018-07-28T03:28:23.264Z,99.99
2018-07-28T03:29:22.954Z,99.99
2018-07-28T03:30:22.942Z,99.99
2018-07-28T03:31:22.931Z,99.99
2018-07-28T03:32:22.919Z,99.99
2018-07-28T03:33:22.961Z,99.99
2018-07-28T03:34:23.199Z,99.99
2018-07-28T03:35:22.889Z,99.99
2018-07-28T03:36:22.879Z,99.99
2018-07-28T03:37:22.867Z,99.99
2018-07-28T03:38:22.854Z,99.99
2018-07-28T03:39:22.894Z,99.99
2018-07-28T03:40:23.133Z,99.99
2018-07-28T03:41:22.821Z,99.99
2018-07-28T03:42:22.810Z,99.99
2018-07-28T03:43:22.798Z,99.99
2018-07-28T03:44:22.789Z,99.99
2018-07-28T03:45:22.828Z,99.99
2018-07-28T03:46:23.065Z,99.99
2018-07-28T03:47:22.756Z,99.99
2018-07-28T03:48:22.747Z,99.99
2018-07-28T03:49:22.820Z,99.99
2018-07-28T03:50:22.722Z,99.99
2018-07-28T03:51:22.761Z,99.99
2018-07-28T03:52:23.002Z,99.99
2018-07-28T03:53:22.691Z,99.99
2018-07-28T03:54:22.684Z,99.99
2018-07-28T03:55:22.668Z,99.99
2018-07-28T03:56:22.684Z,99.99
2018-07-28T03:57:22.695Z,99.99
2018-07-28T03:58:22.933Z,99.99
2018-07-28T03:59:22.621Z,99.99
2018-07-28T04:00:22.612Z,99.99
2018-07-28T04:01:22.603Z,99.99
2018-07-28T04:02:22.589Z,99.99
2018-07-28T04:03:22.628Z,99.99
2018-07-28T04:04:22.869Z,99.99
2018-07-28T04:05:22.556Z,99.99
2018-07-28T04:06:22.545Z,99.99
2018-07-28T04:07:22.534Z,99.99
2018-07-28T04:08:22.524Z,99.99
2018-07-28T04:09:22.564Z,99.99
2018-07-28T04:10:22.504Z,99.99
2018-07-28T04:11:22.792Z,99.99
2018-07-28T04:12:22.479Z,99.99
2018-07-28T04:13:22.470Z,99.99
2018-07-28T04:14:22.485Z,99.99
2018-07-28T04:15:22.498Z,99.99
2018-07-28T04:16:22.436Z,99.99
2018-07-28T04:17:22.425Z,99.99
2018-07-28T04:18:22.722Z,99.99
2018-07-28T04:19:22.406Z,99.99
2018-07-28T04:20:22.392Z,99.99
2018-07-28T04:21:22.437Z,99.99
2018-07-28T04:22:22.369Z,99.99
2018-07-28T04:23:22.358Z,99.99
2018-07-28T04:24:22.350Z,99.99
2018-07-28T04:25:22.638Z,99.99
2018-07-28T04:26:22.325Z,99.99
2018-07-28T04:27:22.370Z,99.99
2018-07-28T04:28:22.304Z,99.99
2018-07-28T04:29:22.297Z,99.99
2018-07-28T04:30:22.283Z,99.99
2018-07-28T04:31:22.273Z,99.99
2018-07-28T04:32:22.560Z,99.99
2018-07-28T04:33:22.301Z,99.99
2018-07-28T04:34:22.237Z,99.99
2018-07-28T04:35:22.227Z,99.99
2018-07-28T04:36:22.217Z,99.99
2018-07-28T04:37:22.206Z,99.99
2018-07-28T04:38:22.200Z,99.99
2018-07-28T04:39:22.490Z,99.99
2018-07-28T04:40:22.172Z,99.99
2018-07-28T04:41:22.163Z,99.99
2018-07-28T04:42:22.150Z,99.99
2018-07-28T04:43:22.162Z,99.99
2018-07-28T04:44:22.129Z,99.99
2018-07-28T04:45:22.169Z,99.99
2018-07-28T04:46:22.408Z,99.99
2018-07-28T04:47:22.095Z,99.99
2018-07-28T04:48:22.084Z,99.99
2018-07-28T04:49:22.074Z,99.99
2018-07-28T04:50:22.063Z,99.99
2018-07-28T04:51:22.101Z,99.99
2018-07-28T04:52:22.043Z,99.99
2018-07-28T04:53:22.333Z,99.99
2018-07-28T04:54:22.030Z,99.99
2018-07-28T04:55:22.011Z,99.99
2018-07-28T04:56:22.002Z,99.99
2018-07-28T04:57:22.041Z,99.99
2018-07-28T04:58:21.979Z,99.99
2018-07-28T04:59:22.268Z,99.99
2018-07-28T05:00:21.955Z,99.99
2018-07-28T05:01:21.946Z,99.99
2018-07-28T05:02:21.934Z,99.99
2018-07-28T05:03:21.974Z,99.99
2018-07-28T05:04:21.919Z,99.99
2018-07-28T05:05:22.201Z,99.99
2018-07-28T05:06:21.892Z,99.99
2018-07-28T05:07:21.939Z,99.99
2018-07-28T05:08:21.871Z,99.99
2018-07-28T05:09:21.911Z,99.99
2018-07-28T05:10:21.849Z,99.99
2018-07-28T05:11:22.188Z,99.99
2018-07-28T05:12:21.831Z,99.99
2018-07-28T05:13:21.818Z,99.99
2018-07-28T05:14:21.806Z,99.99
2018-07-28T05:15:21.846Z,99.99
2018-07-28T05:16:21.788Z,99.99
2018-07-28T05:17:22.077Z,99.99
2018-07-28T05:18:21.764Z,99.99
2018-07-28T05:19:21.753Z,99.99
2018-07-28T05:20:21.751Z,99.99
2018-07-28T05:21:21.783Z,99.99
2018-07-28T05:22:21.723Z,99.99
2018-07-28T05:23:22.015Z,99.99
2018-07-28T05:24:21.703Z,99.99
2018-07-28T05:25:21.691Z,99.99
2018-07-28T05:26:21.680Z,99.99
2018-07-28T05:27:21.972Z,99.99
2018-07-28T05:28:21.660Z,99.99
2018-07-28T05:29:21.950Z,99.99
2018-07-28T05:30:21.639Z,99.99
2018-07-28T05:31:21.627Z,99.99
2018-07-28T05:32:21.630Z,99.99
2018-07-28T05:33:21.660Z,99.99
2018-07-28T05:34:21.596Z,99.99
2018-07-28T05:35:21.886Z,99.99
2018-07-28T05:36:21.577Z,99.99
2018-07-28T05:37:21.572Z,99.99
2018-07-28T05:38:21.555Z,99.99
2018-07-28T05:39:21.596Z,99.99
2018-07-28T05:40:21.547Z,99.99
2018-07-28T05:41:21.825Z,99.99
2018-07-28T05:42:21.515Z,99.99
2018-07-28T05:43:21.505Z,99.99
2018-07-28T05:44:21.493Z,99.99
2018-07-28T05:45:21.534Z,99.99
2018-07-28T05:46:21.476Z,99.99
2018-07-28T05:47:21.462Z,99.99
2018-07-28T05:48:21.753Z,99.99
2018-07-28T05:49:21.444Z,99.99
2018-07-28T05:50:21.435Z,99.99
2018-07-28T05:51:21.471Z,99.99
2018-07-28T05:52:21.452Z,99.99
2018-07-28T05:53:21.409Z,99.99
2018-07-28T05:54:21.393Z,99.99
2018-07-28T05:55:21.683Z,99.99
2018-07-28T05:56:21.374Z,99.99
2018-07-28T05:57:21.417Z,99.99
2018-07-28T05:58:21.355Z,99.99
2018-07-28T05:59:21.344Z,99.99
2018-07-28T06:00:21.333Z,99.99
2018-07-28T06:01:21.327Z,99.99
2018-07-28T06:02:21.668Z,99.99
2018-07-28T06:03:21.358Z,99.99
2018-07-28T06:04:21.295Z,99.99
2018-07-28T06:05:21.284Z,99.99
2018-07-28T06:06:21.273Z,99.99
2018-07-28T06:07:21.265Z,99.99
2018-07-28T06:08:21.253Z,99.99
2018-07-28T06:09:21.548Z,99.02
2018-07-28T06:10:21.234Z,99.11
2018-07-28T06:11:21.234Z,99.51
2018-07-28T06:12:21.217Z,98.63
2018-07-28T06:13:21.207Z,98.35
2018-07-28T06:14:21.198Z,99.11
2018-07-28T06:15:21.234Z,99.31
2018-07-28T06:16:21.478Z,99.02
2018-07-28T06:17:21.165Z,99.99
2018-07-28T06:18:21.158Z,98.30
2018-07-28T06:19:21.147Z,97.91
2018-07-28T06:20:21.195Z,97.52
2018-07-28T06:21:21.177Z,97.23
2018-07-28T06:22:21.117Z,97.04
2018-07-28T06:23:21.409Z,97.52
2018-07-28T06:24:21.097Z,95.78
2018-07-28T06:25:21.089Z,95.54
2018-07-28T06:26:21.078Z,95.92
2018-07-28T06:27:21.121Z,96.22
2018-07-28T06:28:21.059Z,95.34
2018-07-28T06:29:21.050Z,96.12
2018-07-28T06:30:21.342Z,95.25
2018-07-28T06:31:21.032Z,93.60
2018-07-28T06:32:21.022Z,94.18
2018-07-28T06:33:21.061Z,93.07
2018-07-28T06:34:21.001Z,91.61
2018-07-28T06:35:20.994Z,92.58
2018-07-28T06:36:21.285Z,93.07
2018-07-28T06:37:20.974Z,93.26
2018-07-28T06:38:20.963Z,92.97
2018-07-28T06:39:21.007Z,92.58
2018-07-28T06:40:20.946Z,92.19
2018-07-28T06:41:20.938Z,91.52
2018-07-28T06:42:20.941Z,92.29
2018-07-28T06:43:20.919Z,92.05
2018-07-28T06:44:20.906Z,91.66
2018-07-28T06:45:20.951Z,91.66
2018-07-28T06:46:20.889Z,89.82
2018-07-28T06:47:20.903Z,90.59
2018-07-28T06:48:20.929Z,90.30
2018-07-28T06:49:20.862Z,89.47
2018-07-28T06:50:20.853Z,89.86
2018-07-28T06:51:20.896Z,89.09
2018-07-28T06:52:20.835Z,89.09
2018-07-28T06:53:20.826Z,88.99
2018-07-28T06:54:21.116Z,89.18
2018-07-28T06:55:20.807Z,88.12
2018-07-28T06:56:20.798Z,88.16
2018-07-28T06:57:20.847Z,87.44
2018-07-28T06:58:20.782Z,87.96
2018-07-28T06:59:20.773Z,87.48
2018-07-28T07:00:21.064Z,86.32
2018-07-28T07:01:20.760Z,86.51
2018-07-28T07:02:20.745Z,85.89
2018-07-28T07:03:20.789Z,86.22
2018-07-28T07:04:20.728Z,86.32
2018-07-28T07:05:20.721Z,86.12
2018-07-28T07:06:20.714Z,86.12
2018-07-28T07:07:20.702Z,86.80
2018-07-28T07:08:20.724Z,86.02
2018-07-28T07:09:20.737Z,85.64
2018-07-28T07:10:20.676Z,84.86
2018-07-28T07:11:20.666Z,85.64
2018-07-28T07:12:20.959Z,84.91
2018-07-28T07:13:20.651Z,85.83
2018-07-28T07:14:20.657Z,86.32
2018-07-28T07:15:20.682Z,86.90
2018-07-28T07:16:20.623Z,85.15
2018-07-28T07:17:20.615Z,85.74
2018-07-28T07:18:20.606Z,85.06
2018-07-28T07:19:20.899Z,85.54
2018-07-28T07:20:20.588Z,85.06
2018-07-28T07:21:20.646Z,84.86
2018-07-28T07:22:20.572Z,85.44
2018-07-28T07:23:20.563Z,85.88
2018-07-28T07:24:20.556Z,85.97
2018-07-28T07:25:20.847Z,85.97
2018-07-28T07:26:20.536Z,85.00
2018-07-28T07:27:20.624Z,84.36
2018-07-28T07:28:20.530Z,84.66
2018-07-28T07:29:20.514Z,84.66
2018-07-28T07:30:20.558Z,83.00
2018-07-28T07:31:20.496Z,82.52
2018-07-28T07:32:20.795Z,82.23
2018-07-28T07:33:21.731Z,81.06
2018-07-28T07:34:20.492Z,80.38
2018-07-28T07:35:20.464Z,82.13
2018-07-28T07:36:20.454Z,80.91
2018-07-28T07:37:20.500Z,80.62
2018-07-28T07:38:20.435Z,79.06
2018-07-28T07:39:20.780Z,77.99
2018-07-28T07:40:20.422Z,79.00
2018-07-28T07:41:20.427Z,77.84
2018-07-28T07:42:20.404Z,77.97
2018-07-28T07:43:20.397Z,76.71
2018-07-28T07:44:20.428Z,74.96
2018-07-28T07:45:20.432Z,74.96
2018-07-28T07:46:20.673Z,74.76
2018-07-28T07:47:20.479Z,77.14
2018-07-28T07:48:20.356Z,78.20
2018-07-28T07:49:20.354Z,77.14
2018-07-28T07:50:20.340Z,77.17
2018-07-28T07:51:21.609Z,75.03
2018-07-28T07:52:20.397Z,74.26
2018-07-28T07:53:20.621Z,73.96
2018-07-28T07:54:20.360Z,74.65
2018-07-28T07:55:20.304Z,75.13
2018-07-28T07:56:20.297Z,74.35
2018-07-28T07:57:20.366Z,75.23
2018-07-28T07:58:20.311Z,75.91
2018-07-28T07:59:20.276Z,76.34
2018-07-28T08:00:20.616Z,71.66
2018-07-28T08:01:20.266Z,73.80
2018-07-28T08:02:20.258Z,74.58
2018-07-28T08:03:20.299Z,74.39
2018-07-28T08:04:20.243Z,77.01
2018-07-28T08:05:20.237Z,73.61
2018-07-28T08:06:20.237Z,71.08
2018-07-28T08:07:20.221Z,72.28
2018-07-28T08:08:20.215Z,72.77
2018-07-28T08:09:20.262Z,71.60
2018-07-28T08:10:20.263Z,70.33
2018-07-28T08:11:20.192Z,69.81
2018-07-28T08:12:20.190Z,73.41
2018-07-28T08:13:20.481Z,69.46
2018-07-28T08:14:20.177Z,69.56
2018-07-28T08:15:20.219Z,68.62
2018-07-28T08:16:20.161Z,69.29
2018-07-28T08:17:20.157Z,70.86
2018-07-28T08:18:20.147Z,67.86
2018-07-28T08:19:20.147Z,66.79
2018-07-28T08:20:20.496Z,66.69
2018-07-28T08:21:20.209Z,67.86
2018-07-28T08:22:20.145Z,67.77
2018-07-28T08:23:20.164Z,67.77
2018-07-28T08:24:20.117Z,66.11
2018-07-28T08:25:20.111Z,66.50
2018-07-28T08:26:20.432Z,66.24
2018-07-28T08:27:20.150Z,66.34
2018-07-28T08:28:20.087Z,64.97
2018-07-28T08:29:20.108Z,67.44
2018-07-28T08:30:20.074Z,65.20
2018-07-28T08:31:20.121Z,64.42
2018-07-28T08:32:20.369Z,63.73
2018-07-28T08:33:20.150Z,64.94
2018-07-28T08:34:20.065Z,64.84
2018-07-28T08:35:20.065Z,63.09
2018-07-28T08:36:20.043Z,63.96
2018-07-28T08:37:20.037Z,62.92
2018-07-28T08:38:20.327Z,60.96
2018-07-28T08:39:20.114Z,61.77
2018-07-28T08:40:20.057Z,62.49
2018-07-28T08:41:20.037Z,60.41
2018-07-28T08:42:20.005Z,59.63
2018-07-28T08:43:20.000Z,62.79
2018-07-28T08:44:20.302Z,62.30
2018-07-28T08:45:20.067Z,60.22
2018-07-28T08:46:19.983Z,62.24
2018-07-28T08:47:19.983Z,61.66
2018-07-28T08:48:19.987Z,61.10
2018-07-28T08:49:20.090Z,60.42
2018-07-28T08:50:20.266Z,61.59
2018-07-28T08:51:20.010Z,60.74
2018-07-28T08:52:19.957Z,58.59
2018-07-28T08:53:19.950Z,60.67
2018-07-28T08:54:19.949Z,58.13
2018-07-28T08:55:19.941Z,58.84
2018-07-28T08:56:19.933Z,60.50
2018-07-28T08:57:20.233Z,57.77
2018-07-28T08:58:19.980Z,57.60
2018-07-28T08:59:19.921Z,59.07
2018-07-28T09:00:19.915Z,58.09
2018-07-28T09:01:19.920Z,57.40
2018-07-28T09:02:19.906Z,58.41
2018-07-28T09:03:20.256Z,56.46
2018-07-28T09:04:19.899Z,56.16
2018-07-28T09:05:19.905Z,56.56
2018-07-28T09:06:19.895Z,57.56
2018-07-28T09:07:19.885Z,57.56
2018-07-28T09:08:19.917Z,56.48
2018-07-28T09:09:19.928Z,54.82
2018-07-28T09:10:20.174Z,53.35
2018-07-28T09:11:19.874Z,54.94
2018-07-28T09:12:19.866Z,53.18
2018-07-28T09:13:19.868Z,56.71
2018-07-28T09:14:19.854Z,55.04
2018-07-28T09:15:19.903Z,55.66
2018-07-28T09:16:20.154Z,54.28
2018-07-28T09:17:19.849Z,52.79
2018-07-28T09:18:19.840Z,53.74
2018-07-28T09:19:19.835Z,54.25
2018-07-28T09:20:19.835Z,55.04
2018-07-28T09:21:19.893Z,55.07
2018-07-28T09:22:20.126Z,53.89
2018-07-28T09:23:19.922Z,52.62
2018-07-28T09:24:19.818Z,52.13
2018-07-28T09:25:19.813Z,51.81
2018-07-28T09:26:19.812Z,52.81
2018-07-28T09:27:19.857Z,53.43
2018-07-28T09:28:19.807Z,53.43
2018-07-28T09:29:19.799Z,50.17
2018-07-28T09:30:19.798Z,50.15
2018-07-28T09:31:19.795Z,51.15
2018-07-28T09:32:19.791Z,49.95
2018-07-28T09:33:19.893Z,51.22
2018-07-28T09:34:20.088Z,51.12
2018-07-28T09:35:19.785Z,49.55
2018-07-28T09:36:19.781Z,50.02
2018-07-28T09:37:19.778Z,49.92
2018-07-28T09:38:19.819Z,50.02
2018-07-28T09:39:19.823Z,51.29
2018-07-28T09:40:20.085Z,49.92
2018-07-28T09:41:19.781Z,50.81
2018-07-28T09:42:19.764Z,50.51
2018-07-28T09:43:19.764Z,50.63
2018-07-28T09:44:19.813Z,50.63
2018-07-28T09:45:19.809Z,51.34
2018-07-28T09:47:19.757Z,48.80
2018-07-28T09:48:19.750Z,49.70
2018-07-28T09:49:19.748Z,49.31
2018-07-28T09:50:19.790Z,48.63
2018-07-28T09:51:19.793Z,50.12
2018-07-28T09:52:20.048Z,47.55
2018-07-28T09:53:19.739Z,49.60
2018-07-28T09:54:19.737Z,48.92
2018-07-28T09:55:19.758Z,48.45
2018-07-28T09:56:19.811Z,48.45
2018-07-28T09:57:19.778Z,49.24
2018-07-28T09:58:20.029Z,47.27
2018-07-28T09:59:19.724Z,47.59
2018-07-28T10:00:19.724Z,46.61
2018-07-28T10:01:19.759Z,47.22
2018-07-28T10:02:19.720Z,47.61
2018-07-28T10:03:19.767Z,46.31
2018-07-28T10:04:20.042Z,46.24
2018-07-28T10:05:19.715Z,45.83
2018-07-28T10:06:19.712Z,47.42
2018-07-28T10:07:19.716Z,47.22
2018-07-28T10:08:19.712Z,46.14
2018-07-28T10:09:19.859Z,44.77
2018-07-28T10:10:20.010Z,45.75
2018-07-28T10:11:19.704Z,46.24
2018-07-28T10:12:19.703Z,46.44
2018-07-28T10:13:19.706Z,46.66
2018-07-28T10:14:19.700Z,47.30
2018-07-28T10:15:19.749Z,47.54
2018-07-28T10:16:20.083Z,45.45
2018-07-28T10:17:19.698Z,46.61
2018-07-28T10:18:19.698Z,45.98
2018-07-28T10:19:19.696Z,47.33
2018-07-28T10:20:19.696Z,47.30
2018-07-28T10:21:19.792Z,47.87
2018-07-28T10:22:19.990Z,49.43
2018-07-28T10:23:19.690Z,49.33
2018-07-28T10:24:19.688Z,48.92
2018-07-28T10:25:19.691Z,49.02
2018-07-28T10:26:19.688Z,51.78
2018-07-28T10:27:19.737Z,49.63
2018-07-28T10:28:19.984Z,51.39
2018-07-28T10:29:19.707Z,52.79
2018-07-28T10:30:19.683Z,50.85
2018-07-28T10:31:19.689Z,51.44
2018-07-28T10:32:19.684Z,52.55
2018-07-28T10:33:19.726Z,49.43
2018-07-28T10:34:19.674Z,50.02
2018-07-28T10:35:19.971Z,48.85
2018-07-28T10:36:19.701Z,47.77
2018-07-28T10:37:19.713Z,47.42
2018-07-28T10:38:19.665Z,48.08
2018-07-28T10:39:19.722Z,48.23
2018-07-28T10:40:19.665Z,47.79
2018-07-28T10:41:19.665Z,47.17
2018-07-28T10:42:19.977Z,49.95
2018-07-28T10:43:19.663Z,48.01
2018-07-28T10:44:19.676Z,47.45
2018-07-28T10:45:19.707Z,47.84
2018-07-28T10:46:19.655Z,48.80
2018-07-28T10:47:19.655Z,49.02
2018-07-28T10:48:19.956Z,49.07
2018-07-28T10:49:19.652Z,47.47
2018-07-28T10:50:19.646Z,47.91
2018-07-28T10:51:19.704Z,48.43
2018-07-28T10:52:19.647Z,46.98
2018-07-28T10:53:19.648Z,47.71
2018-07-28T10:54:19.951Z,47.96
2018-07-28T10:55:19.641Z,48.39
2018-07-28T10:56:19.698Z,46.65
2018-07-28T10:57:19.702Z,45.25
2018-07-28T10:58:19.642Z,45.25
2018-07-28T10:59:19.648Z,45.72
2018-07-28T11:00:19.971Z,45.54
2018-07-28T11:01:19.643Z,44.98
2018-07-28T11:02:19.637Z,44.52
2018-07-28T11:03:19.689Z,45.48
2018-07-28T11:04:19.639Z,45.77
2018-07-28T11:05:19.695Z,45.79
2018-07-28T11:06:19.674Z,46.01
2018-07-28T11:07:19.956Z,44.56
2018-07-28T11:08:19.639Z,45.19
2018-07-28T11:09:19.687Z,43.30
2018-07-28T11:10:19.639Z,43.42
2018-07-28T11:11:19.641Z,42.86
2018-07-28T11:12:19.705Z,44.24
2018-07-28T11:13:19.651Z,45.27
2018-07-28T11:14:19.942Z,43.14
2018-07-28T11:15:19.693Z,45.53
2018-07-28T11:16:19.655Z,46.12
2018-07-28T11:17:19.645Z,46.75
2018-07-28T11:18:19.651Z,45.03
2018-07-28T11:19:19.706Z,43.77
2018-07-28T11:20:19.975Z,45.19
2018-07-28T11:21:19.697Z,42.54
2018-07-28T11:22:19.647Z,43.62
2018-07-28T11:23:19.662Z,43.82
2018-07-28T11:24:19.653Z,44.56
2018-07-28T11:25:19.669Z,45.74
2018-07-28T11:26:20.048Z,43.77
2018-07-28T11:27:19.706Z,45.17
2018-07-28T11:28:19.715Z,44.90
2018-07-28T11:29:19.660Z,43.64
2018-07-28T11:30:19.658Z,42.95
2018-07-28T11:31:19.658Z,43.50
2018-07-28T11:32:20.039Z,46.38
2018-07-28T11:33:19.738Z,45.57
2018-07-28T11:34:19.671Z,46.31
2018-07-28T11:35:19.665Z,47.42
2018-07-28T11:36:19.668Z,47.56
2018-07-28T11:37:19.669Z,46.82
2018-07-28T11:38:19.967Z,42.89
2018-07-28T11:39:19.719Z,45.96
2018-07-28T11:40:19.672Z,43.08
2018-07-28T11:41:19.704Z,42.65
2018-07-28T11:42:19.678Z,44.02
2018-07-28T11:43:19.680Z,45.20
2018-07-28T11:44:19.675Z,44.85
2018-07-28T11:45:19.726Z,45.23
2018-07-28T11:46:19.681Z,46.09
2018-07-28T11:47:19.686Z,45.74
2018-07-28T11:48:19.679Z,44.56
2018-07-28T11:49:19.983Z,47.73
2018-07-28T11:50:19.682Z,46.30
2018-07-28T11:51:19.845Z,44.15
2018-07-28T11:52:19.888Z,42.65
2018-07-28T11:53:19.687Z,41.94
2018-07-28T11:54:19.732Z,44.82
2018-07-28T11:55:20.011Z,43.66
2018-07-28T11:56:19.691Z,42.20
2018-07-28T11:57:19.744Z,42.14
2018-07-28T11:58:19.830Z,42.93
2018-07-28T11:59:19.696Z,46.00
2018-07-28T12:00:19.698Z,45.36
2018-07-28T12:01:20.034Z,42.64
2018-07-28T12:02:19.703Z,39.70
2018-07-28T12:03:19.774Z,39.31
2018-07-28T12:04:19.712Z,40.76
2018-07-28T12:05:19.711Z,42.55
2018-07-28T12:06:19.731Z,41.78
2018-07-28T12:07:20.014Z,41.71
2018-07-28T12:08:19.719Z,39.86
2018-07-28T12:09:19.788Z,39.56
2018-07-28T12:10:19.720Z,39.72
2018-07-28T12:11:19.729Z,40.61
2018-07-28T12:12:19.727Z,41.14
2018-07-28T12:13:20.032Z,40.25
2018-07-28T12:14:19.732Z,41.47
2018-07-28T12:15:19.852Z,40.09
2018-07-28T12:16:19.747Z,40.39
2018-07-28T12:17:19.740Z,41.27
2018-07-28T12:18:19.854Z,41.35
2018-07-28T12:19:20.092Z,43.96
2018-07-28T12:20:19.749Z,42.54
2018-07-28T12:21:19.804Z,40.39
2018-07-28T12:22:19.766Z,40.70
2018-07-28T12:23:19.758Z,40.34
2018-07-28T12:24:19.771Z,39.46
2018-07-28T12:25:19.770Z,39.04
2018-07-28T12:26:20.070Z,39.99
2018-07-28T12:27:19.824Z,40.03
2018-07-28T12:28:19.775Z,40.56
2018-07-28T12:29:19.775Z,43.68
2018-07-28T12:30:19.784Z,43.28
2018-07-28T12:31:19.781Z,43.57
2018-07-28T12:32:20.120Z,43.16
2018-07-28T12:33:20.092Z,44.62
2018-07-28T12:34:19.797Z,43.12
2018-07-28T12:35:19.796Z,44.83
2018-07-28T12:36:19.795Z,43.57
2018-07-28T12:37:19.793Z,40.55
2018-07-28T12:38:19.796Z,42.54
2018-07-28T12:39:20.099Z,41.51
2018-07-28T12:40:19.824Z,42.49
2018-07-28T12:41:19.805Z,44.05
2018-07-28T12:42:19.823Z,43.33
2018-07-28T12:43:19.803Z,44.20
2018-07-28T12:44:19.802Z,44.57
2018-07-28T12:45:19.907Z,44.13
2018-07-28T12:46:20.103Z,46.20
2018-07-28T12:47:19.807Z,45.68
2018-07-28T12:48:19.808Z,47.35
2018-07-28T12:49:19.835Z,47.91
2018-07-28T12:50:19.804Z,47.91
2018-07-28T12:51:19.859Z,47.33
2018-07-28T12:52:20.111Z,49.36
2018-07-28T12:53:19.858Z,47.30